Time;durP1;ratioP1;P1;durP2;ratioP2;P2;SDS_P1;SDS_P2;PMS_P1;PMS_P2;Temp;Humidity;BMP_temperature;BMP_pressure;BME280_temperature;BME280_humidity;BME280_pressure;Samples;Min_cycle;Max_cycle;Signal;HPM_P1;HPM_P2
2023/12/10 00:01:06;;;;;;;35.97;16.58;;;;;;;1.66;67.10;99473.84;7792424;32;37617;-81
2023/12/10 00:05:22;;;;;;;37.20;15.85;;;;;;;1.97;66.22;99474.78;7792917;32;38110;-81
2023/12/10 00:09:39;;;;;;;33.15;15.13;;;;;;;1.86;66.53;99462.88;7792865;32;40058;-81
2023/12/10 00:13:55;;;;;;;35.75;15.45;;;;;;;1.94;66.24;99443.78;7792830;32;39986;-82
2023/12/10 00:18:11;;;;;;;33.60;15.85;;;;;;;2.27;65.04;99431.81;7772223;32;37881;-82
2023/12/10 00:22:28;;;;;;;41.90;16.08;;;;;;;2.30;64.48;99417.91;7765575;32;36953;-82
2023/12/10 00:26:45;;;;;;;33.80;15.43;;;;;;;2.10;65.48;99442.34;7765506;32;39981;-82
2023/12/10 00:31:04;;;;;;;35.05;15.27;;;;;;;2.35;64.53;99444.16;7751485;32;40737;-81
2023/12/10 00:35:21;;;;;;;28.48;14.80;;;;;;;2.18;65.07;99431.31;7765799;32;37863;-82
2023/12/10 00:39:37;;;;;;;32.53;14.55;;;;;;;2.36;64.19;99424.25;7765409;32;37116;-82
2023/12/10 00:43:54;;;;;;;29.85;13.98;;;;;;;2.66;63.18;99408.13;7765383;32;40016;-82
2023/12/10 00:48:12;;;;;;;31.25;13.77;;;;;;;2.41;64.10;99392.09;7765239;32;40568;-82
2023/12/10 00:52:28;;;;;;;30.30;14.20;;;;;;;2.03;65.13;99390.53;7765269;32;36897;-81
2023/12/10 00:56:45;;;;;;;30.90;15.27;;;;;;;2.31;64.40;99402.59;7765319;32;37346;-82
2023/12/10 01:01:02;;;;;;;30.95;15.18;;;;;;;1.68;66.42;99400.03;7780653;32;39963;-82
2023/12/10 01:05:19;;;;;;;35.55;16.25;;;;;;;1.74;66.85;99374.09;7792096;32;40016;-82
2023/12/10 01:09:38;;;;;;;32.13;15.45;;;;;;;2.13;65.10;99382.75;7791915;32;38063;-82
2023/12/10 01:13:56;;;;;;;34.67;15.60;;;;;;;2.17;64.97;99393.88;7791636;32;37826;-82
2023/12/10 01:18:12;;;;;;;35.17;16.37;;;;;;;1.96;65.78;99414.81;7792114;32;39745;-82
2023/12/10 01:22:30;;;;;;;36.63;16.85;;;;;;;2.05;65.70;99413.47;7791868;32;41005;-82
2023/12/10 01:26:47;;;;;;;35.72;17.25;;;;;;;1.99;65.36;99417.06;7791880;32;36911;-81
2023/12/10 01:31:03;;;;;;;34.88;17.17;;;;;;;2.13;65.49;99408.84;7770104;32;37993;-82
2023/12/10 01:35:19;;;;;;;35.80;15.98;;;;;;;1.61;67.11;99385.03;7764607;32;40008;-82
2023/12/10 01:39:36;;;;;;;36.60;16.17;;;;;;;2.02;65.85;99356.62;7764525;32;40818;-82
2023/12/10 01:43:53;;;;;;;31.83;16.23;;;;;;;1.84;66.26;99368.22;7750871;32;36098;-79
2023/12/10 01:48:10;;;;;;;35.90;15.95;;;;;;;2.06;65.84;99350.56;7772334;32;37621;-79
2023/12/10 01:52:27;;;;;;;39.47;16.98;;;;;;;1.95;66.25;99342.44;7791506;32;39256;-81
2023/12/10 01:56:43;;;;;;;35.90;16.10;;;;;;;1.74;66.80;99335.66;7791275;32;40098;-81
2023/12/10 02:01:18;;;;;;;35.55;16.60;;;;;;;2.15;65.60;99317.97;7789768;32;37883;-81
2023/12/10 02:05:35;;;;;;;38.28;15.60;;;;;;;1.59;67.59;99314.56;7790930;32;37083;-81
2023/12/10 02:09:51;;;;;;;37.75;16.30;;;;;;;1.91;66.37;99330.50;7790952;32;39360;-81
2023/12/10 02:14:08;;;;;;;34.00;15.05;;;;;;;1.87;67.01;99330.94;7790891;32;39913;-81
2023/12/10 02:18:24;;;;;;;32.97;16.33;;;;;;;2.12;65.97;99329.19;7790571;32;38373;-82
2023/12/10 02:23:04;;;;;;;37.95;16.42;;;;;;;2.20;66.02;99328.88;7791741;32;37103;-81
2023/12/10 02:27:21;;;;;;;32.65;16.30;;;;;;;2.26;65.83;99325.28;7793617;32;39241;-81
2023/12/10 02:31:38;;;;;;;37.92;16.33;;;;;;;2.52;64.95;99316.00;7793843;32;40859;-82
2023/12/10 02:35:55;;;;;;;37.92;15.10;;;;;;;2.27;65.83;99296.50;7779843;32;38391;-82
2023/12/10 02:40:11;;;;;;;33.38;15.70;;;;;;;2.33;65.63;99276.75;7773101;32;37587;-81
2023/12/10 02:44:28;;;;;;;38.28;15.35;;;;;;;2.13;66.09;99275.19;7792989;32;39435;-82
2023/12/10 02:48:44;;;;;;;35.58;16.12;;;;;;;2.03;66.61;99269.53;7793791;32;39674;-81
2023/12/10 02:53:00;;;;;;;41.65;15.70;;;;;;;1.64;67.68;99261.78;7793695;32;38675;-82
2023/12/10 02:57:16;;;;;;;39.70;16.35;;;;;;;2.13;66.18;99237.53;7793749;32;37164;-81
2023/12/10 03:01:33;;;;;;;35.65;15.43;;;;;;;2.14;66.30;99220.34;7771016;32;39997;-81
2023/12/10 03:05:49;;;;;;;34.65;15.63;;;;;;;2.49;64.94;99230.34;7766376;32;40938;-81
2023/12/10 03:10:06;;;;;;;36.08;16.27;;;;;;;2.25;65.81;99227.62;7766403;32;37935;-82
2023/12/10 03:14:22;;;;;;;41.65;17.23;;;;;;;2.35;65.68;99229.75;7766441;32;37232;-82
2023/12/10 03:18:39;;;;;;;37.65;16.58;;;;;;;2.37;65.27;99233.03;7766568;32;39349;-81
2023/12/10 03:22:55;;;;;;;38.47;17.12;;;;;;;2.15;66.31;99240.00;7766966;32;40062;-81
2023/12/10 03:27:11;;;;;;;36.55;17.10;;;;;;;2.54;65.10;99238.53;7766158;32;37931;-82
2023/12/10 03:31:28;;;;;;;38.97;18.15;;;;;;;2.17;65.94;99241.38;7766154;32;38316;-81
2023/12/10 03:35:44;;;;;;;34.90;17.48;;;;;;;2.47;65.44;99232.47;7765416;32;40012;-81
2023/12/10 03:40:01;;;;;;;36.17;16.65;;;;;;;2.41;66.04;99238.75;7765943;32;40757;-81
2023/12/10 03:44:17;;;;;;;36.53;17.05;;;;;;;2.11;66.58;99263.84;7765918;32;38648;-82
2023/12/10 03:48:33;;;;;;;38.15;17.33;;;;;;;2.10;67.17;99266.75;7766157;32;37160;-82
2023/12/10 03:52:49;;;;;;;33.70;15.88;;;;;;;2.52;65.57;99240.66;7765968;32;39980;-82
2023/12/10 03:57:06;;;;;;;40.70;16.10;;;;;;;2.61;65.50;99249.19;7765902;32;39651;-81
2023/12/10 04:01:22;;;;;;;37.72;16.27;;;;;;;2.78;64.97;99243.94;7788554;32;37617;-83
2023/12/10 04:05:39;;;;;;;36.53;16.50;;;;;;;2.60;65.59;99243.00;7792860;32;37192;-82
2023/12/10 04:09:57;;;;;;;35.78;18.00;;;;;;;2.78;65.15;99234.00;7791417;32;39279;-81
2023/12/10 04:14:13;;;;;;;40.72;17.02;;;;;;;2.78;65.04;99227.78;7765864;32;40824;-81
2023/12/10 04:18:29;;;;;;;34.75;15.90;;;;;;;1.98;67.19;99224.50;7765711;32;37659;-82
2023/12/10 04:22:46;;;;;;;35.03;16.52;;;;;;;2.50;67.41;99220.41;7765690;32;37752;-82
2023/12/10 04:27:02;;;;;;;35.72;16.77;;;;;;;2.61;66.40;99217.72;7765498;32;40040;-82
2023/12/10 04:31:19;;;;;;;37.42;16.42;;;;;;;2.75;65.77;99223.69;7765271;32;40787;-82
2023/12/10 04:35:35;;;;;;;36.00;15.73;;;;;;;2.90;65.12;99230.47;7766051;32;37959;-82
2023/12/10 04:39:53;;;;;;;33.67;15.45;;;;;;;2.94;64.90;99228.94;7765400;32;37835;-82
2023/12/10 04:44:09;;;;;;;31.40;15.57;;;;;;;2.92;65.04;99225.69;7765337;32;40149;-82
2023/12/10 04:48:25;;;;;;;29.10;14.10;;;;;;;3.18;63.98;99227.03;7765081;32;40031;-82
2023/12/10 04:52:42;;;;;;;31.87;14.35;;;;;;;3.17;63.84;99236.16;7765258;32;37699;-82
2023/12/10 04:56:58;;;;;;;34.30;15.07;;;;;;;3.15;63.96;99228.31;7765332;32;37847;-82
2023/12/10 05:01:15;;;;;;;28.20;14.10;;;;;;;2.89;64.72;99235.03;7765970;32;39225;-82
2023/12/10 05:05:32;;;;;;;34.28;15.68;;;;;;;2.96;64.54;99233.03;7765153;32;39700;-82
2023/12/10 05:09:48;;;;;;;35.25;14.43;;;;;;;3.00;64.43;99236.91;7765170;32;38841;-82
2023/12/10 05:14:06;;;;;;;30.77;14.70;;;;;;;2.98;64.30;99225.56;7765064;32;37438;-82
2023/12/10 05:18:23;;;;;;;29.48;12.82;;;;;;;2.94;64.91;99219.00;7751167;32;39259;-82
2023/12/10 05:22:39;;;;;;;25.17;13.00;;;;;;;2.79;64.84;99213.25;7764754;32;40851;-82
2023/12/10 05:26:55;;;;;;;31.75;13.05;;;;;;;2.73;65.67;99216.91;7764686;32;38338;-82
2023/12/10 05:31:12;;;;;;;31.62;13.30;;;;;;;3.06;64.32;99229.75;7764609;32;37156;-82
2023/12/10 05:35:29;;;;;;;24.30;12.85;;;;;;;2.85;65.27;99238.44;7750688;32;40029;-82
2023/12/10 05:39:45;;;;;;;25.17;12.37;;;;;;;3.15;64.50;99238.28;7764546;32;39926;-82
2023/12/10 05:44:02;;;;;;;26.00;13.05;;;;;;;3.11;64.49;99232.56;7764335;32;38784;-81
2023/12/10 05:48:20;;;;;;;31.42;13.65;;;;;;;3.42;63.31;99237.78;7778382;32;37709;-82
2023/12/10 05:52:37;;;;;;;31.52;13.20;;;;;;;3.12;63.92;99244.97;7791429;32;39398;-82
2023/12/10 05:56:53;;;;;;;27.62;12.80;;;;;;;3.21;63.97;99242.75;7783735;32;40123;-81
2023/12/10 06:01:10;;;;;;;24.55;13.00;;;;;;;3.13;64.18;99248.50;7778897;32;38655;-82
2023/12/10 06:05:26;;;;;;;25.73;13.32;;;;;;;3.13;64.18;99254.69;7791136;32;36935;-81
2023/12/10 06:09:42;;;;;;;25.33;13.23;;;;;;;3.24;64.07;99244.94;7790839;32;39174;-82
2023/12/10 06:13:59;;;;;;;23.40;12.43;;;;;;;3.06;64.61;99247.78;7776825;32;39905;-82
2023/12/10 06:18:15;;;;;;;26.27;12.88;;;;;;;3.04;64.84;99264.19;7763422;32;38736;-82
2023/12/10 06:22:32;;;;;;;28.92;12.00;;;;;;;3.11;64.84;99258.69;7771661;32;37965;-80
2023/12/10 06:26:48;;;;;;;28.52;13.50;;;;;;;3.12;64.83;99254.91;7788801;32;39235;-82
2023/12/10 06:31:04;;;;;;;26.37;12.25;;;;;;;3.20;64.20;99257.25;7782840;32;40799;-82
2023/12/10 06:35:21;;;;;;;25.48;12.65;;;;;;;3.29;64.15;99271.19;7776123;32;37898;-82
2023/12/10 06:39:37;;;;;;;29.60;13.88;;;;;;;3.18;64.77;99283.63;7790204;32;37391;-82
2023/12/10 06:43:53;;;;;;;25.48;12.68;;;;;;;3.03;64.62;99280.56;7790081;32;39218;-82
2023/12/10 06:48:10;;;;;;;24.83;11.70;;;;;;;2.97;65.39;99287.72;7790063;32;40563;-82
2023/12/10 06:52:26;;;;;;;26.08;11.93;;;;;;;3.08;65.37;99286.09;7773897;32;38690;-82
2023/12/10 06:56:43;;;;;;;23.00;10.98;;;;;;;3.23;64.55;99294.50;7762536;32;38051;-83
2023/12/10 07:01:00;;;;;;;23.58;10.88;;;;;;;3.19;64.61;99298.69;7762469;32;39288;-81
2023/12/10 07:05:16;;;;;;;21.80;11.15;;;;;;;3.14;64.98;99302.13;7762411;32;39974;-81
2023/12/10 07:09:33;;;;;;;24.20;11.30;;;;;;;3.29;64.29;99304.31;7763594;32;38714;-82
2023/12/10 07:13:50;;;;;;;20.77;11.07;;;;;;;3.30;64.31;99311.34;7768858;32;37163;-82
2023/12/10 07:18:06;;;;;;;20.50;10.93;;;;;;;3.29;64.52;99315.09;7772266;32;40058;-80
2023/12/10 07:22:23;;;;;;;22.65;11.48;;;;;;;3.04;65.09;99315.34;7766087;32;40894;-82
2023/12/10 07:26:43;;;;;;;22.15;10.13;;;;;;;3.47;66.45;99314.16;7766177;32;37873;-81
2023/12/10 07:30:59;;;;;;;19.37;11.00;;;;;;;3.59;65.25;99319.53;7765833;32;37163;-80
2023/12/10 07:35:15;;;;;;;20.85;9.63;;;;;;;3.37;64.66;99335.50;7766139;32;39170;-81
2023/12/10 07:39:32;;;;;;;17.58;9.65;;;;;;;3.23;64.84;99328.72;7777362;32;39869;-79
2023/12/10 07:43:48;;;;;;;20.65;10.38;;;;;;;3.55;63.65;99334.53;7769362;32;37632;-79
2023/12/10 07:48:04;;;;;;;18.40;9.82;;;;;;;3.38;64.27;99340.66;7765943;32;37965;-80
2023/12/10 07:52:21;;;;;;;19.02;9.60;;;;;;;3.43;64.42;99339.91;7766134;32;39308;-80
2023/12/10 07:56:37;;;;;;;23.87;10.52;;;;;;;3.57;64.08;99343.22;7765927;32;40001;-81
2023/12/10 08:00:54;;;;;;;17.33;9.88;;;;;;;3.36;64.46;99341.91;7765725;32;38556;-80
2023/12/10 08:05:10;;;;;;;17.90;10.00;;;;;;;3.24;65.02;99344.63;7782667;32;36832;-80
2023/12/10 08:09:29;;;;;;;17.25;10.15;;;;;;;3.55;64.12;99356.09;7782763;32;40030;-81
2023/12/10 08:13:51;;;;;;;16.67;9.35;;;;;;;3.43;64.41;99366.88;7766919;32;40826;-80
2023/12/10 08:18:07;;;;;;;18.55;9.70;;;;;;;3.80;63.32;99363.09;7764625;32;38924;-80
2023/12/10 08:22:24;;;;;;;18.00;9.40;;;;;;;3.67;63.41;99348.78;7764243;32;36857;-80
2023/12/10 08:26:40;;;;;;;21.08;10.88;;;;;;;3.58;63.74;99363.72;7764737;32;39862;-80
2023/12/10 08:30:57;;;;;;;17.15;9.50;;;;;;;3.78;63.36;99370.59;7764766;32;40697;-80
2023/12/10 08:35:13;;;;;;;20.08;9.23;;;;;;;3.78;63.31;99368.72;7764632;32;38671;-80
2023/12/10 08:39:30;;;;;;;15.63;9.77;;;;;;;3.65;63.79;99361.69;7765530;32;36838;-81
2023/12/10 08:43:46;;;;;;;19.17;10.38;;;;;;;3.93;62.96;99382.53;7765542;32;39511;-80
2023/12/10 08:48:03;;;;;;;15.43;9.52;;;;;;;3.62;63.85;99383.72;7774352;32;39940;-77
2023/12/10 08:52:19;;;;;;;21.62;11.65;;;;;;;3.88;63.25;99386.97;7778481;32;38020;-77
2023/12/10 08:56:35;;;;;;;16.12;9.48;;;;;;;3.83;63.28;99400.34;7792386;32;37103;-77
2023/12/10 09:00:52;;;;;;;16.95;9.35;;;;;;;3.99;63.04;99406.91;7792352;32;40005;-77
2023/12/10 09:05:08;;;;;;;20.85;11.43;;;;;;;4.10;62.59;99406.06;7774854;32;39741;-79
2023/12/10 09:09:25;;;;;;;15.70;9.65;;;;;;;4.00;63.19;99424.72;7765037;32;37783;-79
2023/12/10 09:13:41;;;;;;;18.98;10.38;;;;;;;4.23;62.35;99415.78;7765704;32;37774;-78
2023/12/10 09:17:57;;;;;;;17.77;9.55;;;;;;;4.17;62.52;99427.50;7764221;32;39992;-78
2023/12/10 09:22:14;;;;;;;18.00;10.75;;;;;;;4.16;62.50;99423.16;7764911;32;40563;-80
2023/12/10 09:30:33;;;;;;;24.65;10.82;;;;;;;3.49;64.25;99424.44;7811885;32;209220;-87
2023/12/10 09:34:50;;;;;;;21.62;10.15;;;;;;;3.66;64.54;99428.06;7806346;32;39728;-81
2023/12/10 09:39:07;;;;;;;19.50;10.73;;;;;;;4.23;62.71;99426.56;7785344;32;38739;-82
2023/12/10 09:43:23;;;;;;;20.05;11.75;;;;;;;4.44;61.79;99430.47;7784857;32;37147;-79
2023/12/10 09:47:40;;;;;;;21.20;11.73;;;;;;;4.59;61.34;99432.62;7784851;32;39131;-80
2023/12/10 09:51:56;;;;;;;21.58;10.98;;;;;;;4.75;61.15;99423.78;7784726;32;40022;-80
2023/12/10 09:56:13;;;;;;;18.15;10.63;;;;;;;5.15;65.16;99422.03;7784615;32;38991;-80
2023/12/10 10:00:29;;;;;;;24.02;12.43;;;;;;;5.19;61.00;99421.28;7784994;32;37210;-81
2023/12/10 10:04:46;;;;;;;19.65;10.93;;;;;;;5.20;60.15;99430.22;7785006;32;39174;-81
2023/12/10 10:09:02;;;;;;;17.90;10.57;;;;;;;5.30;59.85;99441.19;7784879;32;40624;-80
2023/12/10 10:13:18;;;;;;;23.25;11.43;;;;;;;5.33;59.29;99429.91;7784784;32;38059;-81
2023/12/10 10:17:36;;;;;;;23.85;12.30;;;;;;;5.06;59.58;99416.19;7784964;32;37137;-79
2023/12/10 10:21:54;;;;;;;15.02;8.52;;;;;;;5.40;59.06;99424.31;7784738;32;39255;-81
2023/12/10 10:26:11;;;;;;;17.27;9.43;;;;;;;5.54;58.01;99425.62;7809866;32;40798;-82
2023/12/10 10:30:27;;;;;;;14.52;8.18;;;;;;;5.64;57.15;99425.78;7787855;32;37869;-80
2023/12/10 10:34:48;;;;;;;18.65;10.10;;;;;;;5.37;57.42;99427.53;7802957;32;38166;-83
2023/12/10 10:39:07;;;;;;;18.77;10.23;;;;;;;5.41;58.83;99428.66;7779328;32;39291;-85
2023/12/10 10:43:24;;;;;;;17.70;10.07;;;;;;;4.35;61.35;99432.75;7789392;32;39085;-84
2023/12/10 10:47:40;;;;;;;16.48;9.13;;;;;;;4.76;60.04;99422.72;7776938;32;37687;-87
2023/12/10 10:51:58;;;;;;;17.83;9.13;;;;;;;4.33;60.90;99437.56;7779998;32;36903;-86
2023/12/10 10:56:15;;;;;;;17.77;9.45;;;;;;;4.56;60.74;99452.03;7766035;32;39017;-85
2023/12/10 11:00:35;;;;;;;17.95;9.80;;;;;;;4.06;62.67;99465.06;7766517;32;39861;-85
2023/12/10 11:04:52;;;;;;;18.58;10.82;;;;;;;4.59;61.79;99465.03;7766675;32;37501;-86
2023/12/10 11:09:09;;;;;;;17.35;9.38;;;;;;;4.47;61.36;99452.41;7766176;32;38079;-86
2023/12/10 11:13:45;;;;;;;21.23;10.98;;;;;;;4.62;61.12;99451.91;7783444;32;39905;-84
2023/12/10 11:18:02;;;;;;;18.50;10.30;;;;;;;4.35;62.00;99457.03;7793222;32;40739;-85
2023/12/10 11:22:19;;;;;;;18.58;10.88;;;;;;;5.10;59.31;99452.47;7793207;32;38697;-86
2023/12/10 11:26:35;;;;;;;22.65;12.77;;;;;;;3.95;61.77;99465.91;7793270;32;37104;-85
2023/12/10 11:30:52;;;;;;;20.30;11.63;;;;;;;4.59;61.10;99463.19;7758752;32;39078;-85
2023/12/10 11:35:08;;;;;;;20.48;11.18;;;;;;;4.83;60.05;99463.91;7765578;32;40753;-86
2023/12/10 11:41:46;;;;;;;19.92;11.38;;;;;;;4.21;61.86;99474.53;7878628;31;191913;-86
2023/12/10 11:46:24;;;;;;;20.65;11.60;;;;;;;4.46;61.78;99477.75;7840375;31;40654;-86
2023/12/10 11:50:53;;;;;;;24.17;12.65;;;;;;;4.29;61.73;99490.34;7839872;32;38013;-85
2023/12/10 11:55:09;;;;;;;25.30;13.10;;;;;;;4.82;59.84;99488.44;7839831;31;37249;-83
2023/12/10 11:59:26;;;;;;;23.60;13.40;;;;;;;4.10;62.78;99487.78;7841698;31;38828;-82
2023/12/10 12:03:42;;;;;;;25.37;13.48;;;;;;;4.43;61.14;99502.56;7867220;31;40755;-84
2023/12/10 12:08:00;;;;;;;20.58;12.27;;;;;;;4.51;61.15;99510.25;7864302;31;38557;-81
2023/12/10 12:12:18;;;;;;;19.55;10.75;;;;;;;4.51;62.02;99510.25;7841715;31;39398;-80
2023/12/10 12:16:39;;;;;;;19.75;11.68;;;;;;;4.91;60.80;99505.09;7838423;31;39357;-79
2023/12/10 12:20:55;;;;;;;23.62;12.48;;;;;;;4.75;61.72;99515.59;7839380;31;40965;-79
2023/12/10 12:25:12;;;;;;;25.92;13.75;;;;;;;4.55;61.41;99523.28;7843953;31;37836;-79
2023/12/10 12:29:28;;;;;;;25.17;14.63;;;;;;;4.72;61.76;99532.28;7866751;31;38745;-81
2023/12/10 12:33:45;;;;;;;23.48;13.07;;;;;;;4.78;60.48;99530.50;7867105;31;39108;-81
2023/12/10 12:38:01;;;;;;;21.80;12.57;;;;;;;4.72;61.01;99529.56;7866488;31;40892;-80
2023/12/10 12:42:17;;;;;;;21.35;12.32;;;;;;;4.54;61.51;99524.34;7866682;31;37954;-82
2023/12/10 12:46:34;;;;;;;22.20;11.95;;;;;;;4.71;61.03;99525.25;7866900;31;37802;-83
2023/12/10 12:50:50;;;;;;;20.25;11.95;;;;;;;4.08;62.47;99538.47;7857588;31;39674;-83
2023/12/10 12:55:07;;;;;;;23.50;12.35;;;;;;;4.19;62.33;99544.09;7828942;31;40811;-82
2023/12/10 12:59:24;;;;;;;20.00;12.02;;;;;;;4.50;60.97;99546.44;7829253;31;37955;-81
2023/12/10 13:03:40;;;;;;;24.67;11.93;;;;;;;4.92;59.46;99548.06;7833659;31;37684;-81
2023/12/10 13:15:27;;;;;;;17.50;10.77;;;;;;;3.81;63.86;99553.47;7561781;31;9387548;-80
2023/12/10 13:19:44;;;;;;;21.05;11.15;;;;;;;3.81;63.86;99553.47;7827023;31;37573;-81
2023/12/10 13:24:01;;;;;;;21.45;12.43;;;;;;;3.91;63.57;99548.34;7830589;32;37132;-81
2023/12/10 13:28:17;;;;;;;19.87;10.77;;;;;;;4.04;63.14;99561.59;7812329;32;39927;-82
2023/12/10 13:32:35;;;;;;;22.35;11.82;;;;;;;4.24;62.52;99576.59;7823247;32;39886;-82
2023/12/10 13:36:52;;;;;;;20.37;11.43;;;;;;;4.10;62.54;99584.13;7825035;32;37984;-82
2023/12/10 13:41:08;;;;;;;21.45;10.63;;;;;;;4.74;60.94;99573.34;7838274;31;37668;-83
2023/12/10 13:45:24;;;;;;;21.77;12.20;;;;;;;4.70;60.92;99566.81;7839951;32;38952;-83
2023/12/10 13:49:41;;;;;;;21.90;12.48;;;;;;;4.74;60.94;99570.66;7839750;31;40814;-83
2023/12/10 13:54:00;;;;;;;24.30;13.15;;;;;;;4.64;60.87;99567.75;7839886;31;38405;-84
2023/12/10 13:58:16;;;;;;;21.10;12.35;;;;;;;4.71;61.10;99573.84;7839709;31;36225;-84
2023/12/10 14:02:33;;;;;;;21.62;12.23;;;;;;;4.90;60.85;99582.63;7838982;31;39765;-84
2023/12/10 14:06:49;;;;;;;23.02;12.25;;;;;;;4.61;61.58;99577.16;7839389;31;39992;-84
2023/12/10 14:11:05;;;;;;;21.65;12.77;;;;;;;4.56;61.90;99579.75;7839363;31;36841;-81
2023/12/10 14:15:22;;;;;;;24.37;12.13;;;;;;;5.06;60.48;99589.13;7839373;32;37157;-80
2023/12/10 14:19:41;;;;;;;20.95;12.32;;;;;;;5.00;60.63;99599.03;7827695;31;37821;-84
2023/12/10 14:23:58;;;;;;;27.40;13.62;;;;;;;5.05;60.01;99601.84;7827636;32;40828;-86
2023/12/10 14:28:14;;;;;;;23.62;14.57;;;;;;;4.92;60.95;99612.09;7820577;32;37645;-84
2023/12/10 14:32:30;;;;;;;22.37;12.70;;;;;;;5.19;59.49;99620.44;7819808;32;37126;-84
2023/12/10 14:36:47;;;;;;;24.67;13.82;;;;;;;5.17;59.40;99627.97;7820130;32;40077;-83
2023/12/10 14:41:03;;;;;;;24.50;12.98;;;;;;;4.95;59.70;99620.53;7820704;32;39849;-83
2023/12/10 14:45:20;;;;;;;25.37;12.73;;;;;;;4.86;59.84;99624.66;7809115;32;38664;-82
2023/12/10 14:49:36;;;;;;;24.87;14.27;;;;;;;4.54;60.46;99648.56;7795099;32;37230;-84
2023/12/10 14:53:53;;;;;;;24.27;14.90;;;;;;;4.64;60.64;99638.78;7793543;32;39889;-83
2023/12/10 14:58:09;;;;;;;28.45;15.27;;;;;;;4.47;60.80;99640.56;7793228;32;40854;-81
2023/12/10 15:02:25;;;;;;;24.15;15.43;;;;;;;4.60;60.38;99647.59;7793012;32;38853;-79
2023/12/10 15:06:44;;;;;;;28.45;16.60;;;;;;;4.58;60.31;99644.31;7793149;32;36961;-79
2023/12/10 15:11:00;;;;;;;26.75;15.02;;;;;;;4.37;60.74;99654.62;7806711;32;40942;-81
2023/12/10 15:15:18;;;;;;;30.17;16.08;;;;;;;4.53;60.30;99644.19;7820329;32;40776;-83
2023/12/10 15:19:42;;;;;;;33.92;17.10;;;;;;;4.51;60.07;99661.44;7820197;32;37960;-81
2023/12/10 15:23:59;;;;;;;34.47;18.08;;;;;;;4.54;59.64;99660.16;7820038;32;37855;-82
2023/12/10 15:28:16;;;;;;;32.60;18.25;;;;;;;4.34;60.33;99671.28;7819805;32;40538;-83
2023/12/10 15:32:33;;;;;;;38.70;19.45;;;;;;;4.23;60.57;99680.22;7819513;32;39873;-82
2023/12/10 15:36:49;;;;;;;34.22;19.00;;;;;;;4.30;60.47;99676.34;7819000;32;38723;-83
2023/12/10 15:41:06;;;;;;;37.08;20.25;;;;;;;4.30;60.41;99670.94;7819877;32;37914;-79
2023/12/10 15:45:22;;;;;;;30.98;18.48;;;;;;;4.14;60.80;99680.56;7792761;32;39108;-80
2023/12/10 15:49:39;;;;;;;33.00;18.08;;;;;;;4.09;60.93;99685.81;7792697;32;40144;-79
2023/12/10 15:53:55;;;;;;;32.00;16.95;;;;;;;4.20;60.67;99684.19;7819406;32;38702;-78
2023/12/10 15:58:12;;;;;;;33.35;17.35;;;;;;;3.99;61.33;99703.63;7819997;32;37863;-80
2023/12/10 16:02:28;;;;;;;29.58;16.02;;;;;;;3.86;61.74;99699.25;7819882;32;39658;-79
2023/12/10 16:06:44;;;;;;;31.60;17.17;;;;;;;3.89;61.91;99706.88;7819795;32;39707;-78
2023/12/10 16:11:01;;;;;;;29.73;16.25;;;;;;;3.78;62.19;99707.66;7819263;32;38036;-79
2023/12/10 16:15:19;;;;;;;25.90;15.25;;;;;;;3.75;62.28;99707.06;7765101;32;37830;-79
2023/12/10 16:19:37;;;;;;;26.98;15.52;;;;;;;3.75;62.45;99712.44;7764924;32;39028;-79
2023/12/10 16:23:53;;;;;;;26.58;14.55;;;;;;;3.80;62.33;99729.84;7765025;32;39971;-79
2023/12/10 16:28:09;;;;;;;25.95;15.43;;;;;;;3.57;62.62;99720.59;7764809;32;37940;-79
2023/12/10 16:32:26;;;;;;;29.30;17.20;;;;;;;3.38;62.99;99726.00;7764540;32;37930;-79
2023/12/10 16:36:42;;;;;;;30.55;17.10;;;;;;;3.51;62.74;99737.66;7764570;32;39767;-69
2023/12/10 16:40:58;;;;;;;29.27;16.37;;;;;;;3.47;62.93;99741.87;7764745;32;40630;-80
2023/12/10 16:45:15;;;;;;;29.63;18.33;;;;;;;3.82;64.64;99749.31;7764652;32;37912;-80
2023/12/10 16:49:31;;;;;;;34.55;19.10;;;;;;;3.74;63.36;99740.50;7737219;32;37153;-80
2023/12/10 16:53:48;;;;;;;32.38;17.83;;;;;;;3.88;62.68;99724.09;7737496;32;39904;-79
2023/12/10 16:58:04;;;;;;;31.55;17.33;;;;;;;3.82;62.62;99746.59;7752344;32;39751;-80
2023/12/10 17:02:23;;;;;;;32.97;19.30;;;;;;;3.84;62.47;99745.31;7752574;32;37927;-79
2023/12/10 17:06:41;;;;;;;31.73;18.52;;;;;;;3.84;62.64;99747.19;7736111;32;37579;-80
2023/12/10 17:10:58;;;;;;;32.58;17.27;;;;;;;3.68;62.93;99749.47;7737228;32;39959;-80
2023/12/10 17:15:14;;;;;;;31.58;17.77;;;;;;;3.54;63.14;99753.41;7796537;32;40666;-80
2023/12/10 17:19:30;;;;;;;32.13;16.42;;;;;;;3.68;62.91;99760.25;7810262;32;38432;-79
2023/12/10 17:23:48;;;;;;;26.95;16.02;;;;;;;3.62;62.87;99765.72;7797122;32;37250;-80
2023/12/10 17:28:05;;;;;;;27.77;16.45;;;;;;;3.76;62.68;99768.03;7815880;32;39102;-80
2023/12/10 17:32:21;;;;;;;28.40;16.55;;;;;;;3.70;62.90;99760.84;7817996;32;40011;-80
2023/12/10 17:36:37;;;;;;;33.42;17.33;;;;;;;3.84;62.56;99779.56;7817272;32;38585;-80
2023/12/10 17:40:54;;;;;;;27.77;16.20;;;;;;;3.79;62.71;99785.63;7817733;32;36903;-80
2023/12/10 17:45:11;;;;;;;26.92;15.65;;;;;;;3.58;63.33;99787.75;7817812;32;39246;-81
2023/12/10 17:49:28;;;;;;;29.23;15.70;;;;;;;3.74;62.85;99796.28;7816302;32;39974;-81
2023/12/10 17:53:45;;;;;;;26.35;15.15;;;;;;;3.96;62.23;99793.91;7803813;32;37689;-83
2023/12/10 17:58:01;;;;;;;31.35;15.27;;;;;;;3.67;62.78;99790.13;7790167;32;37921;-82
2023/12/10 18:02:19;;;;;;;28.30;15.80;;;;;;;4.02;61.91;99787.63;7794026;32;39128;-81
2023/12/10 18:06:38;;;;;;;28.00;16.65;;;;;;;3.79;62.52;99782.13;7793918;32;38904;-82
2023/12/10 18:10:55;;;;;;;24.83;15.85;;;;;;;3.83;62.23;99762.56;7804733;32;36914;-82
2023/12/10 18:15:12;;;;;;;27.48;15.88;;;;;;;3.89;62.15;99767.03;7820840;32;37832;-81
2023/12/10 18:19:29;;;;;;;29.00;15.75;;;;;;;3.72;62.61;99777.63;7821121;32;39073;-79
2023/12/10 18:23:46;;;;;;;26.77;15.80;;;;;;;3.88;62.15;99780.75;7813669;32;40851;-80
2023/12/10 18:28:02;;;;;;;27.73;16.52;;;;;;;3.93;61.93;99778.19;7820900;32;37850;-80
2023/12/10 18:32:19;;;;;;;34.70;21.52;;;;;;;3.83;61.85;99772.50;7820489;32;37181;-80
2023/12/10 18:36:35;;;;;;;39.03;22.35;;;;;;;3.92;61.42;99771.97;7820485;32;40017;-82
2023/12/10 18:40:52;;;;;;;40.67;23.45;;;;;;;3.53;62.52;99776.00;7820896;32;40706;-81
2023/12/10 18:45:08;;;;;;;36.13;22.13;;;;;;;3.43;62.83;99773.00;7820348;32;37586;-81
2023/12/10 18:49:25;;;;;;;38.60;20.67;;;;;;;3.39;63.22;99762.66;7811101;32;37161;-81
2023/12/10 18:53:41;;;;;;;35.08;19.35;;;;;;;3.46;63.13;99759.91;7812072;32;39995;-82
2023/12/10 18:57:59;;;;;;;30.58;16.45;;;;;;;3.54;62.80;99764.19;7808199;32;40655;-82
2023/12/10 19:02:18;;;;;;;32.05;16.87;;;;;;;3.45;62.64;99750.19;7802615;32;40080;-83
2023/12/10 19:06:36;;;;;;;25.65;16.50;;;;;;;3.43;62.53;99748.75;7804747;32;36969;-81
2023/12/10 19:10:56;;;;;;;28.67;17.40;;;;;;;3.43;62.33;99746.06;7815387;32;39055;-82
2023/12/10 19:15:13;;;;;;;32.08;17.12;;;;;;;3.32;62.58;99737.69;7819939;32;40604;-83
2023/12/10 19:19:30;;;;;;;28.90;17.40;;;;;;;3.51;61.92;99746.56;7819747;32;39502;-82
2023/12/10 19:23:47;;;;;;;32.53;16.65;;;;;;;3.38;62.26;99742.19;7820124;32;38647;-81
2023/12/10 19:28:04;;;;;;;26.10;15.50;;;;;;;3.32;62.46;99740.38;7816872;32;40014;-82
2023/12/10 19:32:29;;;;;;;30.83;16.40;;;;;;;3.44;62.50;99748.53;7814231;32;39929;-82
2023/12/10 19:36:46;;;;;;;28.27;16.73;;;;;;;3.36;62.77;99752.38;7799359;32;38577;-81
2023/12/10 19:41:05;;;;;;;29.77;17.85;;;;;;;3.61;62.08;99753.31;7818158;32;37734;-81
2023/12/10 19:45:25;;;;;;;36.63;20.65;;;;;;;3.56;62.05;99757.50;7816213;32;39084;-83
2023/12/10 19:49:43;;;;;;;33.05;17.27;;;;;;;3.41;62.49;99750.84;7815023;32;39919;-82
2023/12/10 19:54:00;;;;;;;28.02;16.55;;;;;;;3.44;62.03;99748.53;7812573;32;37774;-83
2023/12/10 19:58:19;;;;;;;27.20;14.77;;;;;;;3.50;61.54;99754.88;7790200;32;36917;-82
2023/12/10 20:02:37;;;;;;;26.02;15.93;;;;;;;3.20;61.56;99752.94;7791913;32;39210;-83
2023/12/10 20:06:55;;;;;;;30.10;16.33;;;;;;;3.35;61.12;99757.97;7791224;32;39934;-81
2023/12/10 20:11:14;;;;;;;27.15;16.08;;;;;;;3.49;60.27;99751.38;7791409;32;37111;-81